map of ARI home
ARI - Airport
Location
City:  Arica, Arica y Parinacota, Chile
Name:Chacalluta International Airport
ICAO:SCAR
IATA:ARI

Details
Type:Airport (Aerodrome, Airfield)
Use:Public/Civil, International (customs port of entry)
Latitude:1820'55"S (-18.348610)
Longitude:7020'19"W (-70.338610)
Elevation:166 ft (51 m)
Variation:5.67W (WMM2015 magnetic declination)
-0.19 annual change
Runways:1
Longest:7119 × 148 ft (2170 × 45 m), paved

Time
Time Zone:UTC-4 (DST-3)
Local Time:

Weather
METAR:SCAR 190200Z 15003KT CAVOK 20/14 Q1015
TAF:SCAR 182240Z 1900/1924 20004KT CAVOK TN19/1906Z TX23/1918Z
BECMG 1901/1903 OVC030
BECMG 1915/1917 23012KT CAVOK
BECMG 1922/1924 20004KT

Related Locations
Nearby:
Farthest:SYX: 12432 mi / 20008 km
Sanya [Fenghuang Intl (Phoenix Intl)], 46, CN

Find:

   beyond  
but within

Other Information
Maps:
NOTAMs:
Links:
Sources:

  
  • flag of Chile
  • flag of Arica y Parinacota
  

Sectional Chart

Flight Planning
at skyvector.com

Satellite Image

Google Maps Satellite view

 

Copyright © 2004-2018 Karl L. Swartz. All rights reserved.
The Great Circle Mapper name and logo are trademarks of the Great Circle Mapper.
All other trademarks mentioned herein belong to their respective owners.
Please see credits for attibutions and further copyright information.

  Follow gcmap on Facebook Follow gcmap on Twitter Follow gcmap on Google+ GCmap on LinkedIn

hCard Microformat

Geo Microformat